Thetford Center, VT (05075)

10:26 PM EDT on April 25, 2017 (GMT -0400)
Stone House Farm | | Change Station

Elev 1230 ft 43.83 °N, 72.34 °W | Updated 4 seconds ago

Rain
Rain
46.0 °F
Feels Like 46 °F
N
3.0
Wind Variable Wind from South
Gusts 6.0 mph

Today
High -- | Low -- °F
--% Chance of Precip.
Yesterday
High -- | Low -- °F
Precip. -- in
Pressure 30.14 in
Visibility 10.0 miles
Clouds Overcast 1300 ft
Windchill 46 °F
Dew Point 33 °F
Humidity 62%
Rainfall 0.07 in
Snow Depth Not available.
5:49 AM 7:45 PM
Waning Crescent, 0% visible
METAR KLEB 260153Z 11004KT 10SM -RA OVC013 09/07 A3014 RMK AO2 RAB18 SLP206 P0001 T00940067
Pressure 30.14 in
Visibility 10.0 miles
Clouds Overcast 1300 ft
Windchill 46 °F
Dew Point 33 °F
Humidity 62%
Rainfall 0.07 in
Snow Depth Not available.
5:49 AM 7:45 PM
Waning Crescent, 0% visible
METAR KLEB 260153Z 11004KT 10SM -RA OVC013 09/07 A3014 RMK AO2 RAB18 SLP206 P0001 T00940067

Get Severe Weather Alerts

Thanks for signing up!

Be on the lookout for a verification email in your inbox.

You'll start receiving the daily forecast at 8 AM.

×

10-Day Weather Forecast

Almanac

Astronomy

Apr. 25, 2017 Rise Set
Actual Time
Civil Twilight
Nautical Twilight
Astronomical Twilight
Moon
Length of Visible Light
Length of Day
Tomorrow will be .
, % of the Moon is Illuminated

Today's Extremes

State Highs State Lows

Community

WunderPhotos

WunderBlog® & News

Nearby

Air Quality

  Air Quality AQ Index Pollutant
Not available.

Snow Depth

Station Depth Elevation

Earthquake Activity

City Distance Mag. Time & Date
Minimum magnitude displayed is 2.5.

Coastal Water Temperatures

Place Temperature

Stations

Nearby Weather Stations

Station Location Temp. Windchill Dew Point Humidity Wind Precip. Elev Updated Type
                   

Watches & Warnings

There are currently no watches in effect.